createdAt,value
2018-08-30T00:00:19.689Z,16.52
2018-08-30T00:03:01.431Z,16.29
2018-08-30T00:05:43.367Z,16.44
2018-08-30T00:08:34.695Z,16.51
2018-08-30T00:11:08.308Z,16.44
2018-08-30T00:13:38.263Z,16.46
2018-08-30T00:16:11.086Z,16.49
2018-08-30T00:19:00.668Z,16.55
2018-08-30T00:21:29.612Z,16.50
2018-08-30T00:24:20.985Z,16.53
2018-08-30T00:26:49.865Z,16.63
2018-08-30T00:29:31.273Z,16.65
2018-08-30T00:32:07.372Z,16.71
2018-08-30T00:34:41.911Z,16.75
2018-08-30T00:37:21.017Z,16.80
2018-08-30T00:39:51.940Z,16.75
2018-08-30T00:42:23.880Z,16.84
2018-08-30T00:44:54.860Z,16.70
2018-08-30T00:47:31.006Z,16.54
2018-08-30T00:50:00.956Z,16.71
2018-08-30T00:52:29.953Z,16.74
2018-08-30T00:54:58.895Z,16.76
2018-08-30T00:57:36.103Z,16.75
2018-08-30T01:00:10.377Z,16.78
2018-08-30T01:02:43.920Z,16.72
2018-08-30T01:05:23.372Z,16.76
2018-08-30T01:08:00.170Z,16.85
2018-08-30T01:10:43.163Z,16.82
2018-08-30T01:13:17.864Z,16.83
2018-08-30T01:15:53.148Z,16.81
2018-08-30T01:18:22.090Z,16.85
2018-08-30T01:21:01.090Z,16.82
2018-08-30T01:23:30.009Z,16.81
2018-08-30T01:25:59.893Z,16.82
2018-08-30T01:28:41.230Z,16.83
2018-08-30T01:31:14.802Z,16.86
2018-08-30T01:33:45.767Z,16.74
2018-08-30T01:36:19.415Z,16.90
2018-08-30T01:38:54.659Z,16.93
2018-08-30T01:41:31.403Z,16.93
2018-08-30T01:44:05.744Z,16.91
2018-08-30T01:46:47.138Z,16.94
2018-08-30T01:49:16.042Z,16.77
2018-08-30T01:51:52.214Z,16.74
2018-08-30T01:54:24.408Z,16.91
2018-08-30T01:57:00.801Z,16.90
2018-08-30T01:59:33.102Z,16.87
2018-08-30T02:04:57.864Z,16.99
2018-08-30T02:07:30.026Z,16.92
2018-08-30T02:09:59.031Z,16.96
2018-08-30T02:12:37.975Z,16.78
2018-08-30T02:15:17.012Z,16.70
2018-08-30T02:17:51.107Z,16.86
2018-08-30T02:20:24.776Z,16.88
2018-08-30T02:22:58.815Z,16.83
2018-08-30T02:25:27.965Z,16.83
2018-08-30T02:28:02.726Z,16.89
2018-08-30T02:30:54.124Z,16.96
2018-08-30T02:33:25.350Z,16.76
2018-08-30T02:35:57.586Z,16.87
2018-08-30T02:38:37.591Z,16.89
2018-08-30T02:41:08.671Z,16.85
2018-08-30T02:43:41.766Z,16.83
2018-08-30T02:46:29.640Z,16.87
2018-08-30T02:49:10.841Z,16.99
2018-08-30T02:51:44.030Z,16.94
2018-08-30T02:57:11.243Z,16.86
2018-08-30T02:59:41.227Z,16.86
2018-08-30T03:02:11.178Z,16.88
2018-08-30T03:04:45.685Z,16.99
2018-08-30T03:07:21.842Z,16.92
2018-08-30T03:09:50.893Z,16.88
2018-08-30T03:12:19.858Z,16.91
2018-08-30T03:15:02.524Z,16.84
2018-08-30T03:17:42.859Z,16.89
2018-08-30T03:20:25.888Z,17.00
2018-08-30T03:22:56.888Z,17.00
2018-08-30T03:25:25.857Z,16.96
2018-08-30T03:28:00.521Z,16.93
2018-08-30T03:30:39.323Z,16.88
2018-08-30T03:33:10.156Z,16.96
2018-08-30T03:35:39.139Z,16.94
2018-08-30T03:38:10.108Z,16.85
2018-08-30T03:40:39.241Z,16.95
2018-08-30T03:43:08.177Z,16.90
2018-08-30T03:45:37.133Z,17.02
2018-08-30T03:48:17.502Z,16.93
2018-08-30T03:50:46.492Z,16.89
2018-08-30T03:53:18.480Z,16.88
2018-08-30T03:55:51.148Z,16.91
2018-08-30T03:58:20.133Z,16.97
2018-08-30T04:00:50.035Z,16.95
2018-08-30T04:03:23.422Z,16.91
2018-08-30T04:05:55.036Z,16.93
2018-08-30T04:08:26.123Z,16.98
2018-08-30T04:11:01.114Z,16.86
2018-08-30T04:13:49.013Z,16.87
2018-08-30T04:16:23.974Z,16.90
2018-08-30T04:19:07.523Z,16.94
2018-08-30T04:21:37.102Z,16.86
2018-08-30T04:24:13.158Z,16.89
2018-08-30T04:26:52.861Z,16.85
2018-08-30T04:29:22.842Z,16.87
2018-08-30T04:31:53.790Z,16.87
2018-08-30T04:34:23.780Z,16.88
2018-08-30T04:36:58.395Z,16.89
2018-08-30T04:39:47.131Z,16.80
2018-08-30T04:42:16.155Z,16.83
2018-08-30T04:44:48.597Z,16.83
2018-08-30T04:47:21.312Z,16.80
2018-08-30T04:49:50.288Z,17.07
2018-08-30T04:52:19.288Z,17.01
2018-08-30T04:54:53.951Z,16.96
2018-08-30T05:00:16.485Z,16.86
2018-08-30T05:02:47.576Z,16.92
2018-08-30T05:05:19.800Z,16.83
2018-08-30T05:07:49.054Z,16.87
2018-08-30T05:10:19.003Z,16.84
2018-08-30T05:12:48.015Z,16.91
2018-08-30T05:15:21.930Z,16.83
2018-08-30T05:17:57.940Z,16.90
2018-08-30T05:20:30.409Z,16.85
2018-08-30T05:23:05.201Z,16.90
2018-08-30T05:28:27.924Z,16.84
2018-08-30T05:31:01.565Z,16.80
2018-08-30T05:33:30.535Z,16.87
2018-08-30T05:36:01.506Z,16.97
2018-08-30T05:38:42.755Z,16.92
2018-08-30T05:41:22.478Z,16.90
2018-08-30T05:44:05.858Z,16.84
2018-08-30T05:46:39.141Z,16.88
2018-08-30T05:49:17.849Z,16.87
2018-08-30T05:51:58.804Z,16.95
2018-08-30T05:54:29.795Z,16.95
2018-08-30T05:57:02.347Z,17.03
2018-08-30T05:59:37.145Z,17.02
2018-08-30T06:02:07.104Z,16.79
2018-08-30T06:04:41.628Z,16.84
2018-08-30T06:07:14.260Z,16.98
2018-08-30T06:09:43.192Z,16.87
2018-08-30T06:12:16.633Z,16.80
2018-08-30T06:14:45.547Z,16.77
2018-08-30T06:17:14.447Z,16.86
2018-08-30T06:19:43.486Z,16.88
2018-08-30T06:22:12.354Z,16.79
2018-08-30T06:24:41.281Z,16.75
2018-08-30T06:27:22.875Z,16.70
2018-08-30T06:30:06.317Z,16.85
2018-08-30T06:32:47.986Z,16.93
2018-08-30T06:35:16.853Z,16.92
2018-08-30T06:37:45.839Z,16.81
2018-08-30T06:40:20.463Z,16.93
2018-08-30T06:42:49.445Z,16.97
2018-08-30T06:45:18.363Z,16.96
2018-08-30T06:48:00.095Z,16.85
2018-08-30T06:50:31.050Z,16.87
2018-08-30T06:52:59.955Z,16.89
2018-08-30T06:55:28.852Z,16.90
2018-08-30T06:57:57.753Z,16.81
2018-08-30T07:00:33.821Z,16.83
2018-08-30T07:03:14.465Z,16.83
2018-08-30T07:05:43.374Z,16.83
2018-08-30T07:08:12.701Z,16.86
2018-08-30T07:10:46.568Z,17.03
2018-08-30T07:13:22.938Z,16.99
2018-08-30T07:15:56.067Z,16.99
2018-08-30T07:18:25.084Z,17.03
2018-08-30T07:20:53.934Z,17.09
2018-08-30T07:23:23.063Z,16.93
2018-08-30T07:25:51.973Z,16.94
2018-08-30T07:28:20.972Z,16.93
2018-08-30T07:30:49.944Z,17.02
2018-08-30T07:33:18.822Z,17.05
2018-08-30T07:35:47.750Z,17.08
2018-08-30T07:38:16.656Z,16.93
2018-08-30T07:40:45.560Z,16.95
2018-08-30T07:43:16.487Z,17.08
2018-08-30T07:45:50.380Z,17.07
2018-08-30T07:48:24.111Z,17.27
2018-08-30T07:50:54.109Z,17.26
2018-08-30T07:53:22.998Z,17.20
2018-08-30T07:56:10.341Z,17.25
2018-08-30T07:58:51.580Z,17.32
2018-08-30T08:01:28.671Z,17.34
2018-08-30T08:04:02.023Z,17.37
2018-08-30T08:06:42.973Z,17.34
2018-08-30T08:09:16.376Z,17.43
2018-08-30T08:11:45.349Z,17.50
2018-08-30T08:14:20.236Z,17.61
2018-08-30T08:16:49.202Z,17.53
2018-08-30T08:19:40.322Z,17.65
2018-08-30T08:22:27.856Z,17.71
2018-08-30T08:25:16.393Z,17.64
2018-08-30T08:27:46.422Z,17.65
2018-08-30T08:30:19.591Z,17.58
2018-08-30T08:32:56.769Z,17.47
2018-08-30T08:35:25.717Z,17.66
2018-08-30T08:38:05.079Z,17.67
2018-08-30T08:40:34.037Z,17.65
2018-08-30T08:43:13.078Z,17.55
2018-08-30T08:45:42.096Z,17.63
2018-08-30T08:48:11.045Z,17.77
2018-08-30T08:50:46.425Z,17.82
2018-08-30T08:53:20.756Z,17.78
2018-08-30T08:56:03.207Z,17.76
2018-08-30T08:58:38.708Z,17.78
2018-08-30T09:01:08.380Z,17.60
2018-08-30T09:03:39.921Z,17.71
2018-08-30T09:06:08.845Z,17.71
2018-08-30T09:08:38.958Z,17.85
2018-08-30T09:11:09.916Z,17.91
2018-08-30T09:13:39.972Z,17.86
2018-08-30T09:16:10.880Z,17.91
2018-08-30T09:18:39.750Z,18.05
2018-08-30T09:21:09.871Z,18.06
2018-08-30T09:23:40.825Z,18.21
2018-08-30T09:26:09.854Z,18.05
2018-08-30T09:28:38.744Z,18.00
2018-08-30T09:31:08.859Z,17.94
2018-08-30T09:33:39.647Z,18.04
2018-08-30T09:36:08.559Z,18.11
2018-08-30T09:38:37.712Z,18.08
2018-08-30T09:41:06.655Z,18.13
2018-08-30T09:43:35.549Z,18.14
2018-08-30T09:46:04.512Z,18.24
2018-08-30T09:48:33.401Z,18.33
2018-08-30T09:51:02.381Z,18.49
2018-08-30T09:53:36.492Z,18.44
2018-08-30T09:56:06.191Z,18.39
2018-08-30T09:58:40.676Z,18.39
2018-08-30T10:01:15.047Z,18.36
2018-08-30T10:03:47.745Z,18.29
2018-08-30T10:06:16.807Z,18.32
2018-08-30T10:08:45.899Z,18.31
2018-08-30T10:11:14.827Z,18.45
2018-08-30T10:13:43.771Z,18.56
2018-08-30T10:16:18.657Z,18.48
2018-08-30T10:18:49.597Z,18.52
2018-08-30T10:21:19.533Z,18.57
2018-08-30T10:23:48.407Z,18.58
2018-08-30T10:26:23.939Z,18.46
2018-08-30T10:28:59.834Z,18.43
2018-08-30T10:31:40.926Z,18.57
2018-08-30T10:34:09.765Z,18.56
2018-08-30T10:36:42.413Z,18.64
2018-08-30T10:39:12.371Z,18.63
2018-08-30T10:41:53.351Z,18.57
2018-08-30T10:44:23.238Z,18.68
2018-08-30T10:46:52.251Z,18.65
2018-08-30T10:49:24.668Z,18.65
2018-08-30T10:51:57.082Z,18.61
2018-08-30T10:54:26.149Z,18.65
2018-08-30T10:56:59.384Z,18.80
2018-08-30T10:59:34.497Z,18.94
2018-08-30T11:02:03.441Z,18.90
2018-08-30T11:04:32.552Z,18.89
2018-08-30T11:07:09.287Z,18.90
2018-08-30T11:09:38.456Z,18.98
2018-08-30T11:12:08.500Z,19.08
2018-08-30T11:14:38.417Z,18.96
2018-08-30T11:17:07.880Z,18.97
2018-08-30T11:19:40.947Z,19.07
2018-08-30T11:22:13.569Z,19.21
2018-08-30T11:24:53.649Z,19.16
2018-08-30T11:27:30.451Z,19.00
2018-08-30T11:30:02.843Z,18.91
2018-08-30T11:32:31.846Z,19.06
2018-08-30T11:35:00.745Z,19.21
2018-08-30T11:37:29.858Z,19.24
2018-08-30T11:39:58.736Z,19.39
2018-08-30T11:42:27.640Z,19.52
2018-08-30T11:45:03.590Z,19.57
2018-08-30T11:47:32.494Z,19.56
2018-08-30T11:50:01.389Z,19.63
2018-08-30T11:52:32.402Z,19.58
2018-08-30T11:55:01.286Z,19.54
2018-08-30T11:57:30.179Z,19.58
2018-08-30T11:59:59.064Z,19.65
2018-08-30T12:02:27.964Z,19.58
2018-08-30T12:04:56.868Z,19.43
2018-08-30T12:07:35.584Z,19.50
2018-08-30T12:10:04.965Z,19.79
2018-08-30T12:12:39.472Z,19.82
2018-08-30T12:15:08.464Z,19.77
2018-08-30T12:17:44.470Z,19.86
2018-08-30T12:20:13.365Z,19.85
2018-08-30T12:22:42.234Z,19.54
2018-08-30T12:25:19.557Z,19.57
2018-08-30T12:27:48.460Z,19.89
2018-08-30T12:30:17.392Z,20.02
2018-08-30T12:32:53.780Z,19.76
2018-08-30T12:35:23.580Z,20.06
2018-08-30T12:38:03.052Z,20.29
2018-08-30T12:40:32.457Z,20.28
2018-08-30T12:43:07.720Z,20.27
2018-08-30T12:45:37.120Z,20.43
2018-08-30T12:48:07.352Z,20.76
2018-08-30T12:50:40.019Z,20.84
2018-08-30T12:53:10.583Z,20.83
2018-08-30T12:55:40.108Z,20.93
2018-08-30T12:58:09.172Z,20.56
2018-08-30T13:00:40.081Z,20.28
2018-08-30T13:03:21.041Z,20.04
2018-08-30T13:05:58.337Z,20.01
2018-08-30T13:08:30.458Z,19.94
2018-08-30T13:11:00.710Z,20.12
2018-08-30T13:13:36.614Z,20.44
2018-08-30T13:16:05.688Z,20.58
2018-08-30T13:18:34.611Z,20.20
2018-08-30T13:21:07.860Z,19.83
2018-08-30T13:23:44.963Z,19.80
2018-08-30T13:26:14.823Z,19.95
2018-08-30T13:28:44.809Z,20.28
2018-08-30T13:31:13.811Z,20.46
2018-08-30T13:33:42.998Z,20.35
2018-08-30T13:36:12.084Z,20.34
2018-08-30T13:38:43.008Z,20.39
2018-08-30T13:41:17.572Z,20.50
2018-08-30T13:43:46.436Z,20.61
2018-08-30T13:46:25.427Z,20.61
2018-08-30T13:48:54.638Z,20.54
2018-08-30T13:51:24.400Z,20.62
2018-08-30T13:53:53.402Z,20.70
2018-08-30T13:56:22.384Z,20.75
2018-08-30T13:59:03.943Z,20.66
2018-08-30T14:01:33.468Z,20.79
2018-08-30T14:04:02.636Z,20.89
2018-08-30T14:06:38.174Z,20.96
2018-08-30T14:09:07.272Z,21.07
2018-08-30T14:11:39.599Z,21.05
2018-08-30T14:14:09.638Z,20.88
2018-08-30T14:16:39.351Z,20.82
2018-08-30T14:19:10.018Z,20.67
2018-08-30T14:21:43.108Z,20.76
2018-08-30T14:24:13.930Z,20.91
2018-08-30T14:26:47.551Z,20.82
2018-08-30T14:29:16.376Z,20.71
2018-08-30T14:31:49.719Z,20.61
2018-08-30T14:34:21.046Z,20.58
2018-08-30T14:37:00.731Z,20.52
2018-08-30T14:39:30.949Z,20.48
2018-08-30T14:42:08.212Z,20.39
2018-08-30T14:44:40.783Z,20.38
2018-08-30T14:47:11.089Z,20.25
2018-08-30T14:49:40.951Z,20.42
2018-08-30T14:52:13.476Z,20.31
2018-08-30T14:54:44.422Z,20.22
2018-08-30T14:57:13.423Z,20.31
2018-08-30T14:59:42.286Z,20.42
2018-08-30T15:02:11.196Z,20.55
2018-08-30T15:04:40.156Z,20.55
2018-08-30T15:07:09.186Z,20.65
2018-08-30T15:09:43.222Z,20.62
2018-08-30T15:12:13.304Z,20.57
2018-08-30T15:14:45.704Z,20.56
2018-08-30T15:17:28.430Z,20.52
2018-08-30T15:20:01.319Z,20.41
2018-08-30T15:22:31.081Z,20.47
2018-08-30T15:25:02.131Z,20.49
2018-08-30T15:27:37.905Z,20.37
2018-08-30T15:30:06.960Z,20.36
2018-08-30T15:32:35.712Z,20.44
2018-08-30T15:35:04.710Z,20.43
2018-08-30T15:37:38.830Z,20.52
2018-08-30T15:40:07.777Z,20.61
2018-08-30T15:42:37.704Z,20.56
2018-08-30T15:45:10.907Z,20.56
2018-08-30T15:47:41.879Z,20.47
2018-08-30T15:50:11.024Z,20.47
2018-08-30T15:52:40.366Z,20.51
2018-08-30T15:55:14.344Z,20.52
2018-08-30T15:57:44.379Z,20.50
2018-08-30T16:00:15.794Z,20.37
2018-08-30T16:02:46.212Z,20.40
2018-08-30T16:05:23.345Z,20.35
2018-08-30T16:07:54.162Z,20.31
2018-08-30T16:10:25.163Z,20.26
2018-08-30T16:12:55.119Z,20.22
2018-08-30T16:15:24.125Z,20.18
2018-08-30T16:17:55.112Z,20.10
2018-08-30T16:20:24.079Z,19.96
2018-08-30T16:23:03.031Z,19.89
2018-08-30T16:25:34.268Z,19.94
2018-08-30T16:28:03.397Z,19.93
2018-08-30T16:30:37.842Z,19.90
2018-08-30T16:33:07.802Z,19.93
2018-08-30T16:35:40.227Z,19.96
2018-08-30T16:38:09.252Z,19.93
2018-08-30T16:40:41.650Z,19.98
2018-08-30T16:43:12.608Z,20.00
2018-08-30T16:45:45.277Z,19.95
2018-08-30T16:48:17.614Z,19.95
2018-08-30T16:50:48.502Z,19.98
2018-08-30T16:53:17.536Z,20.07
2018-08-30T16:55:58.786Z,20.11
2018-08-30T16:58:27.710Z,20.09
2018-08-30T17:00:56.664Z,20.12
2018-08-30T17:03:32.468Z,20.12
2018-08-30T17:06:07.380Z,20.12
2018-08-30T17:08:36.500Z,20.02
2018-08-30T17:11:07.398Z,20.05
2018-08-30T17:13:40.160Z,20.03
2018-08-30T17:16:10.125Z,20.04
2018-08-30T17:18:46.052Z,19.94
2018-08-30T17:21:21.925Z,19.83
2018-08-30T17:23:52.836Z,19.84
2018-08-30T17:26:23.780Z,19.85
2018-08-30T17:29:04.130Z,19.78
2018-08-30T17:31:34.057Z,19.74
2018-08-30T17:34:03.333Z,19.77
2018-08-30T17:36:32.249Z,19.74
2018-08-30T17:39:02.159Z,19.69
2018-08-30T17:41:31.195Z,19.69
2018-08-30T17:44:00.111Z,19.61
2018-08-30T17:46:29.206Z,19.62
2018-08-30T17:48:58.139Z,19.67
2018-08-30T17:51:27.112Z,19.55
2018-08-30T17:53:59.299Z,19.52
2018-08-30T17:56:35.571Z,19.54
2018-08-30T17:59:09.256Z,19.54
2018-08-30T18:01:39.236Z,19.45
2018-08-30T18:04:08.160Z,19.48
2018-08-30T18:06:38.116Z,19.49
2018-08-30T18:09:11.981Z,19.48
2018-08-30T18:11:48.355Z,19.42
2018-08-30T18:14:27.360Z,19.36
2018-08-30T18:17:07.238Z,19.38
2018-08-30T18:19:36.812Z,19.31
2018-08-30T18:22:06.877Z,19.31
2018-08-30T18:24:35.895Z,19.31
2018-08-30T18:27:05.295Z,19.23
2018-08-30T18:29:34.360Z,19.25
2018-08-30T18:32:03.587Z,19.21
2018-08-30T18:34:33.638Z,19.22
2018-08-30T18:37:07.188Z,19.22
2018-08-30T18:39:36.187Z,19.16
2018-08-30T18:42:05.178Z,19.11
2018-08-30T18:44:39.381Z,19.07
2018-08-30T18:47:08.811Z,19.06
2018-08-30T18:49:38.112Z,19.05
2018-08-30T18:52:07.337Z,18.99
2018-08-30T18:54:39.572Z,19.06
2018-08-30T18:57:10.654Z,19.05
2018-08-30T18:59:39.585Z,19.01
2018-08-30T19:02:09.553Z,19.03
2018-08-30T19:04:39.158Z,19.00
2018-08-30T19:07:09.128Z,18.97
2018-08-30T19:09:38.085Z,19.01
2018-08-30T19:12:10.886Z,18.89
2018-08-30T19:14:43.927Z,18.79
2018-08-30T19:17:18.269Z,18.77
2018-08-30T19:20:01.601Z,18.72
2018-08-30T19:22:34.486Z,18.65
2018-08-30T19:25:08.889Z,18.65
2018-08-30T19:27:37.859Z,18.59
2018-08-30T19:30:15.465Z,18.61
2018-08-30T19:32:44.398Z,18.59
2018-08-30T19:35:25.489Z,18.68
2018-08-30T19:37:56.481Z,18.58
2018-08-30T19:40:35.007Z,18.59
2018-08-30T19:43:03.967Z,18.55
2018-08-30T19:45:32.888Z,18.51
2018-08-30T19:48:15.394Z,18.53
2018-08-30T19:50:55.728Z,18.46
2018-08-30T19:53:24.729Z,18.44
2018-08-30T19:56:03.278Z,18.36
2018-08-30T19:58:32.313Z,18.33
2018-08-30T20:01:06.402Z,18.26
2018-08-30T20:03:35.402Z,18.21
2018-08-30T20:06:06.840Z,18.15
2018-08-30T20:08:44.079Z,18.11
2018-08-30T20:11:25.289Z,18.04
2018-08-30T20:13:55.568Z,17.94
2018-08-30T20:16:32.041Z,17.89
2018-08-30T20:19:02.047Z,17.89
2018-08-30T20:21:30.943Z,17.81
2018-08-30T20:23:59.891Z,17.76
2018-08-30T20:26:43.195Z,17.60
2018-08-30T20:29:12.135Z,17.66
2018-08-30T20:31:48.902Z,17.67
2018-08-30T20:34:21.283Z,17.61
2018-08-30T20:36:50.166Z,17.55
2018-08-30T20:39:22.918Z,17.52
2018-08-30T20:41:57.063Z,17.53
2018-08-30T20:44:28.009Z,17.53
2018-08-30T20:47:03.945Z,17.58
2018-08-30T20:49:33.743Z,17.54
2018-08-30T20:52:05.988Z,17.48
2018-08-30T20:54:34.870Z,17.46
2018-08-30T20:57:05.056Z,17.52
2018-08-30T20:59:56.969Z,17.59
2018-08-30T21:02:26.276Z,17.38
2018-08-30T21:04:55.165Z,17.37
2018-08-30T21:07:29.671Z,17.45
2018-08-30T21:10:03.060Z,17.48
2018-08-30T21:12:32.008Z,17.47
2018-08-30T21:15:05.648Z,17.31
2018-08-30T21:17:34.685Z,17.27
2018-08-30T21:20:03.736Z,17.25
2018-08-30T21:22:51.500Z,17.27
2018-08-30T21:25:20.401Z,17.24
2018-08-30T21:27:59.421Z,17.17
2018-08-30T21:30:29.360Z,17.25
2018-08-30T21:32:58.293Z,17.18
2018-08-30T21:35:27.303Z,17.12
2018-08-30T21:37:59.510Z,17.10
2018-08-30T21:40:45.077Z,17.06
2018-08-30T21:43:17.944Z,16.97
2018-08-30T21:45:46.966Z,16.91
2018-08-30T21:48:16.233Z,16.79
2018-08-30T21:50:56.655Z,16.75
2018-08-30T21:53:43.747Z,16.73
2018-08-30T21:59:12.804Z,16.53
2018-08-30T22:02:00.038Z,16.46
2018-08-30T22:04:35.936Z,16.42
2018-08-30T22:07:11.910Z,16.37
2018-08-30T22:09:50.480Z,16.36
2018-08-30T22:12:33.334Z,16.36
2018-08-30T22:15:02.378Z,16.28
2018-08-30T22:17:43.547Z,16.25
2018-08-30T22:20:19.136Z,16.23
2018-08-30T22:22:48.055Z,16.24
2018-08-30T22:25:17.118Z,16.18
2018-08-30T22:27:45.990Z,16.14
2018-08-30T22:30:15.010Z,16.07
2018-08-30T22:32:43.862Z,16.06
2018-08-30T22:35:12.749Z,16.02
2018-08-30T22:38:00.319Z,16.06
2018-08-30T22:40:30.593Z,15.99
2018-08-30T22:42:59.481Z,15.92
2018-08-30T22:45:28.375Z,15.83
2018-08-30T22:47:57.250Z,15.86
2018-08-30T22:50:29.596Z,15.80
2018-08-30T22:52:58.594Z,15.81
2018-08-30T22:55:27.491Z,15.84
2018-08-30T22:58:07.077Z,15.89
2018-08-30T23:00:50.083Z,15.93
2018-08-30T23:03:19.024Z,15.91
2018-08-30T23:05:55.095Z,15.76
2018-08-30T23:08:24.174Z,15.72
2018-08-30T23:10:53.993Z,15.63
2018-08-30T23:13:27.050Z,15.60
2018-08-30T23:15:55.917Z,15.61
2018-08-30T23:18:26.845Z,15.62
2018-08-30T23:20:55.757Z,15.62
2018-08-30T23:23:24.641Z,15.63
2018-08-30T23:25:53.504Z,15.63
2018-08-30T23:28:22.376Z,15.62
2018-08-30T23:30:51.394Z,15.60
2018-08-30T23:33:28.554Z,15.57
2018-08-30T23:35:57.397Z,15.56
2018-08-30T23:38:29.819Z,15.53
2018-08-30T23:40:59.062Z,15.46
2018-08-30T23:43:27.927Z,15.44
2018-08-30T23:45:56.811Z,15.43
2018-08-30T23:48:25.684Z,15.50
2018-08-30T23:50:54.774Z,15.50
2018-08-30T23:53:34.968Z,15.41
2018-08-30T23:56:03.878Z,15.22
2018-08-30T23:58:44.119Z,15.24
